sensor_id;sensor_type;location;lat;lon;timestamp;temperature;humidity
21544;DHT22;10933;50.754;11.508;2023-06-22T00:30:34;19.40;99.90
21544;DHT22;10933;50.754;11.508;2023-06-22T00:33:01;19.30;99.90
21544;DHT22;10933;50.754;11.508;2023-06-22T00:35:27;19.20;99.90
21544;DHT22;10933;50.754;11.508;2023-06-22T00:37:56;19.30;99.90
21544;DHT22;10933;50.754;11.508;2023-06-22T00:40:35;19.30;99.90
21544;DHT22;10933;50.754;11.508;2023-06-22T00:43:02;19.30;99.90
21544;DHT22;10933;50.754;11.508;2023-06-22T00:45:28;19.40;99.90
21544;DHT22;10933;50.754;11.508;2023-06-22T00:47:58;19.40;99.90
21544;DHT22;10933;50.754;11.508;2023-06-22T00:50:26;19.40;99.90
21544;DHT22;10933;50.754;11.508;2023-06-22T00:52:59;19.30;99.90
21544;DHT22;10933;50.754;11.508;2023-06-22T00:55:39;19.40;99.90
21544;DHT22;10933;50.754;11.508;2023-06-22T00:58:16;19.20;99.90
21544;DHT22;10933;50.754;11.508;2023-06-22T01:00:47;19.10;99.90
21544;DHT22;10933;50.754;11.508;2023-06-22T01:03:14;19.10;99.90
21544;DHT22;10933;50.754;11.508;2023-06-22T01:05:42;19.20;99.90
21544;DHT22;10933;50.754;11.508;2023-06-22T01:11:03;19.10;99.90
21544;DHT22;10933;50.754;11.508;2023-06-22T01:13:58;19.10;99.90
21544;DHT22;10933;50.754;11.508;2023-06-22T01:16:31;19.20;99.90
21544;DHT22;10933;50.754;11.508;2023-06-22T01:22:16;19.20;99.90
21544;DHT22;10933;50.754;11.508;2023-06-22T01:25:12;19.20;99.90
21544;DHT22;10933;50.754;11.508;2023-06-22T01:27:58;19.40;99.90
21544;DHT22;10933;50.754;11.508;2023-06-22T01:30:34;19.30;99.90
21544;DHT22;10933;50.754;11.508;2023-06-22T01:33:01;19.40;99.90
21544;DHT22;10933;50.754;11.508;2023-06-22T01:35:30;19.40;99.90
21544;DHT22;10933;50.754;11.508;2023-06-22T01:37:57;19.80;99.90
21544;DHT22;10933;50.754;11.508;2023-06-22T01:40:23;19.40;99.90
21544;DHT22;10933;50.754;11.508;2023-06-22T01:42:50;19.50;99.90
21544;DHT22;10933;50.754;11.508;2023-06-22T01:45:17;19.40;99.90
21544;DHT22;10933;50.754;11.508;2023-06-22T01:47:44;19.40;99.90
21544;DHT22;10933;50.754;11.508;2023-06-22T01:50:11;19.40;99.90
21544;DHT22;10933;50.754;11.508;2023-06-22T01:52:37;19.30;99.90
21544;DHT22;10933;50.754;11.508;2023-06-22T01:55:04;19.20;99.90
21544;DHT22;10933;50.754;11.508;2023-06-22T01:57:32;19.10;99.90
21544;DHT22;10933;50.754;11.508;2023-06-22T02:00:10;19.10;99.90
21544;DHT22;10933;50.754;11.508;2023-06-22T02:02:55;19.00;99.90
21544;DHT22;10933;50.754;11.508;2023-06-22T02:05:28;19.00;99.90
21544;DHT22;10933;50.754;11.508;2023-06-22T02:10:38;19.30;99.90
21544;DHT22;10933;50.754;11.508;2023-06-22T02:13:07;19.20;99.90
21544;DHT22;10933;50.754;11.508;2023-06-22T02:15:35;19.20;99.90
21544;DHT22;10933;50.754;11.508;2023-06-22T02:18:02;19.20;99.90
21544;DHT22;10933;50.754;11.508;2023-06-22T02:20:28;18.90;99.90
21544;DHT22;10933;50.754;11.508;2023-06-22T02:22:54;19.00;99.90
21544;DHT22;10933;50.754;11.508;2023-06-22T02:25:20;19.00;99.90
21544;DHT22;10933;50.754;11.508;2023-06-22T02:27:46;18.90;99.90
21544;DHT22;10933;50.754;11.508;2023-06-22T02:30:13;18.90;99.90
21544;DHT22;10933;50.754;11.508;2023-06-22T02:32:41;18.50;99.90
21544;DHT22;10933;50.754;11.508;2023-06-22T02:35:08;18.80;99.90
21544;DHT22;10933;50.754;11.508;2023-06-22T02:37:37;18.80;99.90
21544;DHT22;10933;50.754;11.508;2023-06-22T02:40:07;18.90;99.90
21544;DHT22;10933;50.754;11.508;2023-06-22T02:42:39;19.00;99.90
21544;DHT22;10933;50.754;11.508;2023-06-22T02:45:05;18.80;99.90
21544;DHT22;10933;50.754;11.508;2023-06-22T02:47:31;18.70;99.90
21544;DHT22;10933;50.754;11.508;2023-06-22T02:49:57;18.90;99.90
21544;DHT22;10933;50.754;11.508;2023-06-22T02:52:23;18.70;99.90
21544;DHT22;10933;50.754;11.508;2023-06-22T02:54:49;18.60;99.90
21544;DHT22;10933;50.754;11.508;2023-06-22T02:57:15;18.60;99.90
21544;DHT22;10933;50.754;11.508;2023-06-22T02:59:41;19.40;99.90
21544;DHT22;10933;50.754;11.508;2023-06-22T03:02:08;18.70;99.90
21544;DHT22;10933;50.754;11.508;2023-06-22T03:04:36;18.80;99.90
21544;DHT22;10933;50.754;11.508;2023-06-22T03:07:02;18.90;99.90
21544;DHT22;10933;50.754;11.508;2023-06-22T15:11:24;33.30;99.90
21544;DHT22;10933;50.754;11.508;2023-06-22T15:13:50;33.20;99.90
21544;DHT22;10933;50.754;11.508;2023-06-22T15:16:16;33.70;99.90
21544;DHT22;10933;50.754;11.508;2023-06-22T15:18:42;32.80;99.90
21544;DHT22;10933;50.754;11.508;2023-06-22T15:21:08;32.40;99.90
21544;DHT22;10933;50.754;11.508;2023-06-22T15:23:34;32.60;99.90
21544;DHT22;10933;50.754;11.508;2023-06-22T15:26:02;32.60;99.90
21544;DHT22;10933;50.754;11.508;2023-06-22T15:28:30;32.50;99.90
21544;DHT22;10933;50.754;11.508;2023-06-22T15:30:57;32.90;99.90
21544;DHT22;10933;50.754;11.508;2023-06-22T15:33:25;33.70;99.90
21544;DHT22;10933;50.754;11.508;2023-06-22T15:35:51;33.40;99.90
21544;DHT22;10933;50.754;11.508;2023-06-22T15:38:18;32.60;99.90
21544;DHT22;10933;50.754;11.508;2023-06-22T15:40:44;32.40;99.90
21544;DHT22;10933;50.754;11.508;2023-06-22T15:43:10;32.30;99.90
21544;DHT22;10933;50.754;11.508;2023-06-22T15:45:39;32.10;99.90
21544;DHT22;10933;50.754;11.508;2023-06-22T15:48:05;31.80;99.90
21544;DHT22;10933;50.754;11.508;2023-06-22T15:50:32;31.80;99.90
21544;DHT22;10933;50.754;11.508;2023-06-22T15:52:57;31.70;99.90
21544;DHT22;10933;50.754;11.508;2023-06-22T15:55:23;31.80;99.90
21544;DHT22;10933;50.754;11.508;2023-06-22T15:57:49;31.70;99.90
21544;DHT22;10933;50.754;11.508;2023-06-22T16:00:16;31.70;99.90
21544;DHT22;10933;50.754;11.508;2023-06-22T16:02:45;31.80;99.90
21544;DHT22;10933;50.754;11.508;2023-06-22T16:05:11;32.00;99.90
21544;DHT22;10933;50.754;11.508;2023-06-22T16:07:38;32.00;99.90
21544;DHT22;10933;50.754;11.508;2023-06-22T16:10:05;32.00;99.90
21544;DHT22;10933;50.754;11.508;2023-06-22T16:12:33;31.90;99.90
21544;DHT22;10933;50.754;11.508;2023-06-22T16:15:00;32.00;99.90
21544;DHT22;10933;50.754;11.508;2023-06-22T16:17:26;31.80;99.90
21544;DHT22;10933;50.754;11.508;2023-06-22T16:19:53;31.80;99.90
21544;DHT22;10933;50.754;11.508;2023-06-22T16:22:23;31.80;99.90
21544;DHT22;10933;50.754;11.508;2023-06-22T16:24:49;31.70;99.90
21544;DHT22;10933;50.754;11.508;2023-06-22T16:27:18;31.90;99.90
21544;DHT22;10933;50.754;11.508;2023-06-22T16:29:44;31.70;99.90
21544;DHT22;10933;50.754;11.508;2023-06-22T16:32:10;31.60;99.90
21544;DHT22;10933;50.754;11.508;2023-06-22T16:34:36;31.70;99.90
21544;DHT22;10933;50.754;11.508;2023-06-22T16:37:02;31.70;99.90
21544;DHT22;10933;50.754;11.508;2023-06-22T16:39:27;31.60;99.90
21544;DHT22;10933;50.754;11.508;2023-06-22T16:41:53;31.50;99.90
21544;DHT22;10933;50.754;11.508;2023-06-22T16:44:19;31.50;99.90
21544;DHT22;10933;50.754;11.508;2023-06-22T16:46:45;31.40;99.90
21544;DHT22;10933;50.754;11.508;2023-06-22T16:49:11;31.40;99.90
21544;DHT22;10933;50.754;11.508;2023-06-22T16:51:37;31.20;99.90
21544;DHT22;10933;50.754;11.508;2023-06-22T16:54:03;31.10;99.90
21544;DHT22;10933;50.754;11.508;2023-06-22T16:56:29;31.10;99.90
21544;DHT22;10933;50.754;11.508;2023-06-22T16:58:57;31.00;99.90
21544;DHT22;10933;50.754;11.508;2023-06-22T17:01:27;30.90;99.90
21544;DHT22;10933;50.754;11.508;2023-06-22T17:04:06;30.90;99.90
21544;DHT22;10933;50.754;11.508;2023-06-22T17:06:35;31.00;99.90
21544;DHT22;10933;50.754;11.508;2023-06-22T17:09:04;31.00;99.90
21544;DHT22;10933;50.754;11.508;2023-06-22T17:11:31;30.90;99.90
21544;DHT22;10933;50.754;11.508;2023-06-22T17:14:00;30.70;99.90
21544;DHT22;10933;50.754;11.508;2023-06-22T17:16:29;30.60;99.90
21544;DHT22;10933;50.754;11.508;2023-06-22T17:18:57;30.60;99.90
21544;DHT22;10933;50.754;11.508;2023-06-22T17:21:29;30.60;99.90
21544;DHT22;10933;50.754;11.508;2023-06-22T17:23:56;30.70;99.90
